Castlederg, United Kingdom
Current Conditions -  °F | °C
As of 4:20 PM on Saturday 25 Oct 2014 (Local Time) from EGAE Reporting Station
Scattered Clouds Scattered Clouds  
Wind Chill: 55°   Ceiling: Unl
Heat Index: 55°   Visibility: 6mi
Dew Point: 46°   Wind: 31mph
Humidity: 72%   Direction: 240°WSW
Pressure: 29.65"   Gusts: NA
Location:  54.7°N, 7.6°W
Report Text: EGAE 251520Z 24027KT 9999 SCT020 SCT030 13/08 Q1004
Loading
Personal Weather Stations






























Interactive Weather Map New forecast layout! Learn more

10-Day Weather Forecast

Advertisements
Track Severe Weather on mobile